Tuesday, January 15, 2019, 6:34 PM CST
Back to Local

KLOT, Chicago/romeoville, Lewis University Airport

Location: Lockport, IL, United States Lat: 41.608
Local Time: 6:34 PM CST ( 0:34 GMT) Lon: -88.094
Time Zone: US/Central Elev: 672 ft

Show me the last for .
Show Decoded

2019-01-15 18:15 METAR KLOT 160015Z AUTO 23009KT 5SM BR OVC006 M02/M03 A3007 RMK AO2 T10201027 =
2019-01-15 17:55 METAR KLOT 152355Z AUTO 23009KT 7SM OVC006 M02/M03 A3007 RMK AO2 T10221029 11020
                 21026 =
2019-01-15 17:35 METAR KLOT 152335Z AUTO 23011KT 5SM BR OVC006 M02/M03 A3007 RMK AO2 T10241030 =
2019-01-15 17:15 METAR KLOT 152315Z AUTO 24010G15KT 5SM BR OVC006 M02/M03 A3008 RMK AO2 T10251032
                 =
2019-01-15 16:55 METAR KLOT 152255Z AUTO 25009KT 4SM BR OVC006 M03/M03 A3009 RMK AO2 T10261033 =
2019-01-15 16:35 METAR KLOT 152235Z AUTO 25012G20KT 7SM OVC006 M03/M03 A3009 RMK AO2 T10261035 =
2019-01-15 16:15 METAR KLOT 152215Z AUTO 23014G20KT 7SM OVC006 M02/M03 A3009 RMK AO2 T10251035 =
2019-01-15 15:55 METAR KLOT 152155Z AUTO 25013G19KT 10SM OVC008 M02/M04 A3010 RMK AO2 T10241036 =
2019-01-15 15:35 METAR KLOT 152135Z AUTO 24014G20KT 10SM OVC008 M02/M03 A3010 RMK AO2 T10221035 =
2019-01-15 15:15 METAR KLOT 152115Z AUTO 24016G21KT 10SM OVC008 M02/M03 A3010 RMK AO2 T10221035 =
2019-01-15 14:55 METAR KLOT 152055Z AUTO 25014KT 10SM OVC010 M02/M04 A3011 RMK AO2 T10221037 =
2019-01-15 14:35 METAR KLOT 152035Z AUTO 25013G18KT 10SM OVC010 M02/M04 A3011 RMK AO2 T10211040 =
2019-01-15 14:15 METAR KLOT 152015Z AUTO 25012G19KT 10SM OVC010 M02/M04 A3011 RMK AO2 T10221037 =
2019-01-15 13:55 METAR KLOT 151955Z AUTO 24010G18KT 10SM OVC010 M02/M04 A3012 RMK AO2 T10211036 =
2019-01-15 13:35 METAR KLOT 151935Z AUTO 24012G17KT 10SM OVC010 M02/M04 A3012 RMK AO2 T10211040 =
2019-01-15 13:15 METAR KLOT 151915Z AUTO 24011G18KT 10SM OVC010 M02/M04 A3012 RMK AO2 T10221040 =
2019-01-15 12:55 METAR KLOT 151855Z AUTO 24013KT 10SM OVC010 M02/M04 A3013 RMK AO2 T10251040 =
2019-01-15 12:35 METAR KLOT 151835Z AUTO 25011G17KT 10SM OVC010 M02/M04 A3014 RMK AO2 T10241040 =
2019-01-15 12:15 METAR KLOT 151815Z AUTO 25012KT 10SM OVC012 M02/M04 A3016 RMK AO2 T10231041 =
2019-01-15 11:55 METAR KLOT 151755Z AUTO 25012KT 7SM OVC010 M02/M04 A3017 RMK AO2 T10241041 11023
                 21040 =
2019-01-15 11:35 METAR KLOT 151735Z AUTO 25011KT 7SM OVC010 M02/M04 A3019 RMK AO2 T10251041 =
2019-01-15 11:15 METAR KLOT 151715Z AUTO 24007KT 5SM BR OVC012 M02/M04 A3020 RMK AO2 T10251040 =
2019-01-15 10:55 METAR KLOT 151655Z AUTO 23009KT 5SM BR OVC012 M03/M04 A3021 RMK AO2 T10271041 =
2019-01-15 10:35 METAR KLOT 151635Z AUTO 24009KT 7SM OVC012 M03/M04 A3022 RMK AO2 T10271045 =
2019-01-15 10:15 METAR KLOT 151615Z AUTO 24010KT 10SM OVC014 M03/M04 A3023 RMK AO2 T10271045 =
2019-01-15 09:55 METAR KLOT 151555Z AUTO 24011G14KT 10SM OVC016 M03/M04 A3023 RMK AO2 T10291045 =
2019-01-15 09:35 METAR KLOT 151535Z AUTO 24009KT 10SM OVC014 M03/M04 A3023 RMK AO2 T10301045 =
2019-01-15 09:15 METAR KLOT 151515Z AUTO 24008KT 10SM OVC016 M03/M05 A3022 RMK AO2 T10321047 =
2019-01-15 08:55 METAR KLOT 151455Z AUTO 24009KT 10SM OVC016 M03/M05 A3022 RMK AO2 T10311050 =
2019-01-15 08:35 METAR KLOT 151435Z AUTO 24009KT 10SM OVC016 M03/M05 A3022 RMK AO2 T10331050 =
2019-01-15 08:15 METAR KLOT 151415Z AUTO 25007KT 10SM OVC016 M03/M05 A3021 RMK AO2 T10351048 =
2019-01-15 07:55 METAR KLOT 151355Z AUTO 25006KT 7SM SCT010 OVC016 M04/M05 A3021 RMK AO2
                 T10361048 =
2019-01-15 07:35 METAR KLOT 151335Z AUTO 24006KT 7SM OVC014 M04/M05 A3021 RMK AO2 T10371048 =
2019-01-15 07:15 METAR KLOT 151315Z AUTO 25008KT 7SM OVC016 M04/M05 A3021 RMK AO2 T10371048 =
2019-01-15 06:55 METAR KLOT 151255Z AUTO 25008KT 7SM SCT009 OVC018 M04/M05 A3021 RMK AO2
                 T10381048 =
2019-01-15 06:35 METAR KLOT 151235Z AUTO 25010KT 7SM SCT009 OVC018 M04/M05 A3022 RMK AO2
                 T10381048 =
2019-01-15 06:15 METAR KLOT 151215Z AUTO 25010KT 5SM BR SCT008 OVC018 M04/M05 A3022 RMK AO2
                 T10401048 =
2019-01-15 05:55 METAR KLOT 151155Z AUTO 26008KT 5SM BR SCT008 OVC018 M04/M05 A3023 RMK AO2
                 T10401048 11038 21040 =
2019-01-15 05:35 METAR KLOT 151135Z AUTO 25010KT 5SM BR SCT008 OVC018 M04/M05 A3022 RMK AO2
                 T10401048 =
2019-01-15 05:15 METAR KLOT 151115Z AUTO 25008KT 5SM BR BKN006 OVC018 M04/M05 A3022 RMK AO2
                 T10401047 =
2019-01-15 04:55 METAR KLOT 151055Z AUTO 26007KT 5SM BR OVC006 M04/M04 A3023 RMK AO2 T10401045 =
2019-01-15 04:35 METAR KLOT 151035Z AUTO 26010KT 5SM BR OVC006 M04/M05 A3023 RMK AO2 T10401046 =
2019-01-15 04:15 METAR KLOT 151015Z AUTO 25009KT 5SM BR OVC006 M04/M04 A3023 RMK AO2 T10401045 =
2019-01-15 03:55 METAR KLOT 150955Z AUTO 26008KT 4SM BR OVC006 M04/M04 A3024 RMK AO2 T10401045 =
2019-01-15 03:35 METAR KLOT 150935Z AUTO 27007KT 3SM BR OVC006 M04/M04 A3024 RMK AO2 T10401045 =
2019-01-15 03:15 METAR KLOT 150915Z AUTO 26007KT 3SM BR OVC006 M04/M04 A3024 RMK AO2 T10401045 =
2019-01-15 02:55 METAR KLOT 150855Z AUTO 28009KT 4SM BR OVC006 M04/M04 A3025 RMK AO2 T10401045 =
2019-01-15 02:35 METAR KLOT 150835Z AUTO 28008KT 4SM BR OVC006 M04/M04 A3025 RMK AO2 T10391045 =
2019-01-15 02:15 METAR KLOT 150815Z AUTO 27009KT 4SM BR OVC006 M04/M04 A3025 RMK AO2 T10381045 =
2019-01-15 01:55 METAR KLOT 150755Z AUTO 27007KT 5SM BR OVC006 M04/M04 A3025 RMK AO2 T10401045 =
2019-01-15 01:35 METAR KLOT 150735Z AUTO 25008KT 4SM BR OVC006 M04/M05 A3024 RMK AO2 T10401046 =
2019-01-15 01:15 METAR KLOT 150715Z AUTO 28008KT 4SM BR OVC006 M04/M05 A3024 RMK AO2 T10401047 =
2019-01-15 00:55 METAR KLOT 150655Z AUTO 27008KT 5SM BR OVC006 M04/M05 A3024 RMK AO2 T10401048 =
2019-01-15 00:35 METAR KLOT 150635Z AUTO 28010KT 5SM BR OVC006 M04/M05 A3024 RMK AO2 T10401048 =
2019-01-15 00:15 METAR KLOT 150615Z AUTO 29009KT 4SM BR OVC006 M04/M05 A3025 RMK AO2 T10401047 =
2019-01-14 23:55 METAR KLOT 150555Z AUTO 28007KT 4SM BR OVC008 M04/M05 A3026 RMK AO2 T10401050
                 11040 21051 410251090 =
2019-01-14 23:35 METAR KLOT 150535Z AUTO 28010KT 5SM BR OVC008 M04/M05 A3026 RMK AO2 T10401051 =
2019-01-14 23:15 METAR KLOT 150515Z AUTO 28010G15KT 5SM BR OVC008 M04/M05 A3027 RMK AO2 T10401051
                 =
2019-01-14 22:55 METAR KLOT 150455Z AUTO 27009KT 5SM BR OVC008 M04/M05 A3027 RMK AO2 T10411051 =
2019-01-14 22:35 METAR KLOT 150435Z AUTO 28008KT 5SM BR OVC008 M04/M05 A3027 RMK AO2 T10411051 =
2019-01-14 22:15 METAR KLOT 150415Z AUTO 27009KT 5SM BR OVC008 M04/M05 A3027 RMK AO2 T10421052 =
2019-01-14 21:55 METAR KLOT 150355Z AUTO 27007KT 7SM OVC008 M04/M05 A3027 RMK AO2 T10431054 =
2019-01-14 21:35 METAR KLOT 150335Z AUTO 27007KT 7SM OVC008 M04/M05 A3028 RMK AO2 T10451055 =
2019-01-14 21:15 METAR KLOT 150315Z AUTO 27007KT 7SM OVC008 M04/M06 A3028 RMK AO2 T10451056 =
2019-01-14 20:55 METAR KLOT 150255Z AUTO 27008KT 7SM OVC008 M05/M06 A3029 RMK AO2 T10461058 =
2019-01-14 20:35 METAR KLOT 150235Z AUTO 27008KT 7SM OVC008 M05/M06 A3029 RMK AO2 T10481060 =
2019-01-14 20:15 METAR KLOT 150215Z AUTO 28006KT 7SM OVC010 M05/M06 A3029 RMK AO2 T10501062 =
2019-01-14 19:55 METAR KLOT 150155Z AUTO 27012G15KT 7SM OVC010 M05/M06 A3029 RMK AO2 T10511065 =
2019-01-14 19:35 METAR KLOT 150135Z AUTO 26010KT 10SM OVC010 M05/M06 A3029 RMK AO2 T10481063 =
2019-01-14 19:15 METAR KLOT 150115Z AUTO 24012G15KT 10SM OVC010 M05/M06 A3029 RMK AO2 T10461061 =
2019-01-14 18:55 METAR KLOT 150055Z AUTO 27010KT 7SM OVC010 M04/M06 A3030 RMK AO2 T10431060 =
2019-01-14 18:35 METAR KLOT 150035Z AUTO 25010KT 7SM OVC010 M04/M06 A3030 RMK AO2 T10431059 =

Support USWX by starting your Amazon purchase here.